Hollins, Alabama
Current Conditions -  °F | °C
As of 9:55 AM on Sunday 21 Dec 2014 (Local Time) from KSCD Reporting Station
Overcast Overcast  
Wind Chill: 51°   Ceiling: 800
Heat Index: 51°   Visibility: 7mi
Dew Point: 48°   Wind: 5mph
Humidity: 89%   Direction: 80°E
Pressure: 30.18"   Gusts: NA
Location:  33.12°N, 86.14°W
Report Text: KSCD 211555Z AUTO 08004KT 7SM OVC008 11/09 A3018 RMK AO2 T01050088
Loading
Personal Weather Stations






























Interactive Weather Map New forecast layout! Learn more

10-Day Weather Forecast

Advertisements
Track Severe Weather on mobile